createdAt,value
2023-03-13T00:00:48.400Z,2.00
2023-03-13T00:01:53.134Z,1.85
2023-03-13T00:03:06.166Z,1.98
2023-03-13T00:04:09.633Z,1.77
2023-03-13T00:05:15.304Z,2.20
2023-03-13T00:06:18.975Z,2.05
2023-03-13T00:07:23.048Z,2.35
2023-03-13T00:08:33.524Z,1.90
2023-03-13T00:10:45.198Z,1.70
2023-03-13T00:11:48.092Z,1.70
2023-03-13T00:12:51.855Z,1.42
2023-03-13T00:13:58.540Z,2.00
2023-03-13T00:15:02.547Z,2.10
2023-03-13T00:16:19.555Z,1.90
2023-03-13T00:17:22.686Z,1.52
2023-03-13T00:18:27.361Z,1.90
2023-03-13T00:19:32.124Z,2.05
2023-03-13T00:20:36.116Z,1.80
2023-03-13T00:21:43.188Z,2.10
2023-03-13T00:22:48.367Z,1.70
2023-03-13T00:23:55.144Z,1.87
2023-03-13T00:24:59.469Z,2.00
2023-03-13T00:26:12.300Z,1.70
2023-03-13T00:27:20.805Z,1.77
2023-03-13T00:28:28.989Z,1.70
2023-03-13T00:29:34.390Z,1.60
2023-03-13T00:30:38.169Z,2.45
2023-03-13T00:31:42.084Z,1.70
2023-03-13T00:32:49.531Z,1.65
2023-03-13T00:33:55.702Z,2.97
2023-03-13T00:35:00.087Z,1.67
2023-03-13T00:36:08.440Z,1.70
2023-03-13T00:37:11.182Z,1.73
2023-03-13T00:38:14.843Z,2.03
2023-03-13T00:39:18.000Z,1.90
2023-03-13T00:40:26.111Z,2.00
2023-03-13T00:41:31.487Z,1.77
2023-03-13T00:42:36.558Z,1.88
2023-03-13T00:43:44.400Z,1.80
2023-03-13T00:44:47.447Z,1.80
2023-03-13T00:45:53.200Z,2.03
2023-03-13T00:46:56.211Z,2.15
2023-03-13T00:48:01.693Z,1.90
2023-03-13T00:49:09.177Z,1.90
2023-03-13T00:50:15.216Z,2.00
2023-03-13T00:51:23.834Z,2.00
2023-03-13T00:52:29.384Z,1.63
2023-03-13T00:53:32.362Z,1.75
2023-03-13T00:54:36.593Z,1.90
2023-03-13T00:55:39.423Z,2.00
2023-03-13T00:56:48.076Z,1.98
2023-03-13T00:57:56.883Z,1.90
2023-03-13T00:59:01.695Z,2.38
2023-03-13T01:00:10.472Z,2.47
2023-03-13T01:01:28.435Z,1.70
2023-03-13T01:02:34.253Z,1.90
2023-03-13T01:03:39.080Z,1.95
2023-03-13T01:04:45.966Z,1.60
2023-03-13T01:06:03.480Z,1.95
2023-03-13T01:07:06.815Z,2.28
2023-03-13T01:08:09.960Z,2.25
2023-03-13T01:09:16.234Z,1.75
2023-03-13T01:10:23.669Z,1.90
2023-03-13T01:11:29.870Z,1.85
2023-03-13T01:12:33.847Z,1.98
2023-03-13T01:13:38.232Z,2.00
2023-03-13T01:14:42.137Z,2.00
2023-03-13T01:15:45.721Z,1.77
2023-03-13T01:16:50.240Z,2.20
2023-03-13T01:17:55.243Z,1.80
2023-03-13T01:19:06.627Z,2.00
2023-03-13T01:20:12.993Z,2.10
2023-03-13T01:21:20.215Z,2.35
2023-03-13T01:22:24.482Z,2.78
2023-03-13T01:23:33.809Z,2.53
2023-03-13T01:24:39.827Z,2.50
2023-03-13T01:25:43.413Z,2.78
2023-03-13T01:26:47.761Z,3.10
2023-03-13T01:27:51.742Z,2.80
2023-03-13T01:28:59.104Z,2.45
2023-03-13T01:30:03.911Z,2.58
2023-03-13T01:31:16.531Z,2.28
2023-03-13T01:32:20.035Z,3.45
2023-03-13T01:33:23.784Z,2.33
2023-03-13T01:34:27.525Z,2.00
2023-03-13T01:35:36.050Z,2.20
2023-03-13T01:36:39.508Z,2.22
2023-03-13T01:37:42.810Z,2.35
2023-03-13T01:38:54.562Z,2.35
2023-03-13T01:39:57.517Z,2.00
2023-03-13T01:41:00.873Z,1.90
2023-03-13T01:42:06.749Z,2.08
2023-03-13T01:43:27.315Z,2.30
2023-03-13T01:44:55.925Z,2.22
2023-03-13T01:46:05.220Z,2.63
2023-03-13T01:47:19.549Z,2.78
2023-03-13T01:48:43.182Z,3.08
2023-03-13T01:49:49.889Z,2.80
2023-03-13T01:51:12.254Z,2.53
2023-03-13T01:52:24.017Z,3.38
2023-03-13T01:53:36.052Z,2.72
2023-03-13T01:54:46.344Z,2.65
2023-03-13T01:55:53.633Z,2.63
2023-03-13T01:57:02.477Z,2.50
2023-03-13T01:58:08.200Z,2.85
2023-03-13T01:59:15.869Z,2.35
2023-03-13T02:00:30.588Z,2.88
2023-03-13T02:01:34.646Z,2.40
2023-03-13T02:02:49.109Z,2.97
2023-03-13T02:03:54.041Z,2.85
2023-03-13T02:05:01.679Z,2.75
2023-03-13T02:06:07.601Z,2.50
2023-03-13T02:07:17.697Z,2.38
2023-03-13T02:08:26.242Z,2.42
2023-03-13T02:09:33.095Z,2.42
2023-03-13T02:10:46.727Z,2.45
2023-03-13T02:12:02.890Z,2.40
2023-03-13T02:13:07.818Z,2.60
2023-03-13T02:14:13.474Z,3.03
2023-03-13T02:15:21.804Z,2.65
2023-03-13T02:16:26.207Z,4.10
2023-03-13T02:17:30.695Z,4.30
2023-03-13T02:18:41.059Z,5.68
2023-03-13T02:19:54.796Z,5.95
2023-03-13T02:21:12.106Z,5.45
2023-03-13T02:22:32.300Z,6.82
2023-03-13T02:23:52.362Z,6.50
2023-03-13T02:25:25.066Z,6.65
2023-03-13T02:26:35.916Z,5.80
2023-03-13T02:27:45.827Z,6.35
2023-03-13T02:28:51.004Z,6.32
2023-03-13T02:29:55.452Z,6.07
2023-03-13T02:30:59.717Z,6.85
2023-03-13T02:32:03.910Z,7.45
2023-03-13T02:33:07.705Z,7.30
2023-03-13T02:34:13.106Z,8.60
2023-03-13T02:35:20.202Z,9.93
2023-03-13T02:36:24.161Z,9.40
2023-03-13T02:37:33.826Z,9.15
2023-03-13T02:38:54.538Z,8.93
2023-03-13T02:40:04.013Z,7.72
2023-03-13T02:41:10.104Z,6.07
2023-03-13T02:42:16.480Z,5.82
2023-03-13T02:43:31.586Z,5.38
2023-03-13T02:44:45.194Z,3.67
2023-03-13T02:46:06.482Z,3.80
2023-03-13T02:47:12.537Z,3.10
2023-03-13T02:48:15.829Z,3.22
2023-03-13T02:49:25.279Z,2.58
2023-03-13T02:50:29.910Z,2.40
2023-03-13T02:51:41.809Z,2.13
2023-03-13T02:52:56.587Z,2.47
2023-03-13T02:54:09.804Z,2.70
2023-03-13T02:55:25.643Z,2.80
2023-03-13T02:56:34.167Z,1.95
2023-03-13T02:57:37.243Z,2.20
2023-03-13T02:58:49.847Z,2.50
2023-03-13T02:59:59.643Z,2.28
2023-03-13T03:01:08.700Z,2.20
2023-03-13T03:02:14.611Z,3.10
2023-03-13T03:03:18.694Z,2.60
2023-03-13T03:04:25.249Z,2.22
2023-03-13T03:05:32.346Z,2.13
2023-03-13T03:06:39.162Z,2.10
2023-03-13T03:07:44.785Z,2.30
2023-03-13T03:08:48.221Z,2.13
2023-03-13T03:09:55.588Z,2.10
2023-03-13T03:10:59.226Z,2.00
2023-03-13T03:12:02.955Z,2.50
2023-03-13T03:13:06.918Z,2.38
2023-03-13T03:14:12.769Z,2.22
2023-03-13T03:15:21.642Z,2.08
2023-03-13T03:16:25.413Z,2.17
2023-03-13T03:17:29.555Z,2.20
2023-03-13T03:18:34.661Z,2.20
2023-03-13T03:19:44.000Z,2.58
2023-03-13T03:20:47.052Z,2.10
2023-03-13T03:21:50.399Z,2.17
2023-03-13T03:22:55.483Z,2.17
2023-03-13T03:23:58.629Z,2.05
2023-03-13T03:25:01.980Z,2.25
2023-03-13T03:26:07.927Z,2.00
2023-03-13T03:27:12.082Z,2.10
2023-03-13T03:28:23.145Z,2.13
2023-03-13T03:29:26.013Z,2.33
2023-03-13T03:30:31.119Z,2.40
2023-03-13T03:31:36.387Z,2.00
2023-03-13T03:32:41.915Z,1.90
2023-03-13T03:33:45.019Z,2.25
2023-03-13T03:34:53.949Z,2.10
2023-03-13T03:36:07.025Z,2.20
2023-03-13T03:37:10.768Z,2.03
2023-03-13T03:38:18.532Z,1.80
2023-03-13T03:39:24.318Z,1.80
2023-03-13T03:40:29.011Z,2.58
2023-03-13T03:41:36.410Z,2.13
2023-03-13T03:42:40.215Z,2.05
2023-03-13T03:43:43.559Z,2.30
2023-03-13T03:44:48.998Z,2.92
2023-03-13T03:45:53.470Z,2.28
2023-03-13T03:46:57.509Z,2.08
2023-03-13T03:48:03.056Z,2.50
2023-03-13T03:49:07.038Z,2.38
2023-03-13T03:50:12.211Z,2.60
2023-03-13T03:51:24.542Z,2.20
2023-03-13T03:52:27.706Z,2.47
2023-03-13T03:53:33.556Z,2.30
2023-03-13T03:54:36.735Z,2.17
2023-03-13T03:55:40.725Z,2.72
2023-03-13T03:56:44.468Z,2.30
2023-03-13T03:57:47.223Z,1.98
2023-03-13T03:58:56.489Z,2.20
2023-03-13T04:00:15.993Z,2.55
2023-03-13T04:01:28.100Z,2.38
2023-03-13T04:02:31.989Z,2.70
2023-03-13T04:03:36.277Z,2.20
2023-03-13T04:04:40.017Z,2.50
2023-03-13T04:05:50.231Z,2.15
2023-03-13T04:06:54.341Z,2.25
2023-03-13T04:09:05.377Z,2.20
2023-03-13T04:10:09.559Z,2.22
2023-03-13T04:11:18.717Z,2.00
2023-03-13T04:12:26.687Z,2.42
2023-03-13T04:13:33.789Z,2.40
2023-03-13T04:14:40.480Z,5.22
2023-03-13T04:15:49.009Z,2.50
2023-03-13T04:16:55.434Z,2.30
2023-03-13T04:17:58.877Z,2.20
2023-03-13T04:19:05.138Z,2.22
2023-03-13T04:20:11.426Z,2.47
2023-03-13T04:21:15.511Z,2.13
2023-03-13T04:22:36.228Z,2.40
2023-03-13T04:23:40.506Z,2.33
2023-03-13T04:24:43.742Z,2.47
2023-03-13T04:25:46.420Z,2.38
2023-03-13T04:26:50.952Z,2.00
2023-03-13T04:27:53.898Z,2.38
2023-03-13T04:29:01.540Z,2.15
2023-03-13T04:30:20.824Z,2.40
2023-03-13T04:31:42.491Z,2.35
2023-03-13T04:33:06.519Z,2.67
2023-03-13T04:34:27.839Z,2.03
2023-03-13T04:35:43.478Z,2.70
2023-03-13T04:37:26.266Z,2.05
2023-03-13T04:38:42.544Z,1.92
2023-03-13T04:40:00.730Z,2.65
2023-03-13T04:41:21.947Z,2.08
2023-03-13T04:42:42.603Z,2.42
2023-03-13T04:43:56.409Z,2.40
2023-03-13T04:45:22.438Z,2.50
2023-03-13T04:46:27.255Z,2.40
2023-03-13T04:47:49.719Z,2.10
2023-03-13T04:49:17.927Z,2.60
2023-03-13T04:50:49.055Z,2.30
2023-03-13T04:52:07.033Z,2.78
2023-03-13T04:53:30.928Z,2.42
2023-03-13T04:54:41.038Z,2.15
2023-03-13T04:55:53.493Z,2.20
2023-03-13T04:57:13.841Z,3.25
2023-03-13T04:58:44.966Z,2.30
2023-03-13T05:00:06.806Z,2.53
2023-03-13T05:01:19.627Z,2.50
2023-03-13T05:02:38.532Z,2.42
2023-03-13T05:04:04.013Z,2.58
2023-03-13T05:05:30.155Z,4.15
2023-03-13T05:08:18.885Z,2.40
2023-03-13T05:09:51.233Z,2.30
2023-03-13T05:11:15.406Z,2.35
2023-03-13T05:12:50.714Z,3.67
2023-03-13T05:14:16.112Z,2.90
2023-03-13T05:15:58.960Z,2.28
2023-03-13T05:17:43.213Z,2.55
2023-03-13T05:19:07.418Z,2.63
2023-03-13T05:20:36.065Z,2.33
2023-03-13T05:22:05.754Z,2.78
2023-03-13T05:23:35.136Z,2.70
2023-03-13T05:26:56.146Z,3.00
2023-03-13T05:28:30.660Z,2.15
2023-03-13T05:30:03.869Z,2.17
2023-03-13T05:31:45.842Z,2.33
2023-03-13T05:36:41.571Z,2.38
2023-03-13T05:41:15.293Z,3.30
2023-03-13T06:24:56.341Z,2.55
2023-03-13T06:26:31.785Z,3.00
2023-03-13T06:27:47.781Z,3.08
2023-03-13T06:29:03.082Z,2.83
2023-03-13T06:32:37.566Z,2.80
2023-03-13T06:34:03.958Z,3.38
2023-03-13T06:35:15.597Z,4.82
2023-03-13T07:51:42.556Z,2.42
2023-03-13T07:52:45.890Z,3.08
2023-03-13T07:53:47.944Z,3.30
2023-03-13T07:54:50.182Z,2.55
2023-03-13T07:55:54.111Z,2.15
2023-03-13T07:56:58.454Z,2.20
2023-03-13T07:58:00.345Z,2.17
2023-03-13T07:59:02.403Z,2.55
2023-03-13T08:00:06.879Z,2.13
2023-03-13T08:01:19.135Z,2.22
2023-03-13T08:02:21.254Z,2.05
2023-03-13T08:03:24.415Z,2.30
2023-03-13T08:04:26.637Z,2.22
2023-03-13T08:05:28.887Z,2.90
2023-03-13T08:06:34.219Z,2.15
2023-03-13T08:07:37.405Z,2.60
2023-03-13T08:08:47.675Z,1.98
2023-03-13T08:10:01.663Z,2.00
2023-03-13T08:11:13.385Z,2.40
2023-03-13T08:12:15.592Z,2.40
2023-03-13T08:13:26.119Z,2.10
2023-03-13T08:14:59.279Z,2.10
2023-03-13T08:16:11.463Z,2.42
2023-03-13T08:17:16.719Z,2.50
2023-03-13T08:18:19.896Z,2.10
2023-03-13T08:20:15.817Z,2.00
2023-03-13T08:21:23.029Z,2.20
2023-03-13T08:22:25.350Z,2.70
2023-03-13T08:23:28.032Z,2.25
2023-03-13T08:24:33.500Z,2.30
2023-03-13T08:25:40.047Z,2.20
2023-03-13T08:26:44.020Z,2.40
2023-03-13T08:27:47.358Z,2.20
2023-03-13T08:28:57.477Z,2.25
2023-03-13T08:30:03.021Z,2.42
2023-03-13T08:31:17.344Z,2.20
2023-03-13T08:32:20.083Z,2.03
2023-03-13T08:33:23.890Z,2.10
2023-03-13T08:34:26.606Z,2.30
2023-03-13T08:35:31.193Z,2.67
2023-03-13T08:36:35.883Z,2.20
2023-03-13T08:37:42.294Z,2.00
2023-03-13T08:38:50.771Z,2.33
2023-03-13T08:39:56.507Z,2.13
2023-03-13T08:40:59.641Z,2.72
2023-03-13T08:42:03.216Z,2.60
2023-03-13T08:43:08.157Z,2.10
2023-03-13T08:44:16.923Z,2.60
2023-03-13T08:45:19.517Z,2.33
2023-03-13T08:46:23.843Z,2.00
2023-03-13T08:47:26.793Z,2.28
2023-03-13T08:48:32.294Z,2.00
2023-03-13T08:49:35.535Z,1.92
2023-03-13T08:50:37.736Z,2.00
2023-03-13T08:51:41.272Z,1.98
2023-03-13T08:52:47.041Z,2.15
2023-03-13T08:53:50.350Z,1.80
2023-03-13T08:54:54.980Z,1.88
2023-03-13T08:55:59.832Z,2.25
2023-03-13T08:58:32.733Z,2.25
2023-03-13T08:59:35.915Z,2.03
2023-03-13T09:00:40.194Z,2.00
2023-03-13T09:01:44.335Z,1.98
2023-03-13T09:02:47.008Z,2.67
2023-03-13T09:03:49.662Z,2.10
2023-03-13T09:04:53.748Z,2.17
2023-03-13T09:05:58.950Z,2.10
2023-03-13T09:07:05.800Z,2.30
2023-03-13T09:08:12.011Z,2.42
2023-03-13T09:09:15.059Z,2.25
2023-03-13T09:10:18.562Z,2.03
2023-03-13T09:11:24.441Z,2.60
2023-03-13T09:12:33.965Z,2.28
2023-03-13T09:13:39.904Z,2.50
2023-03-13T09:14:45.423Z,2.55
2023-03-13T09:15:55.556Z,2.53
2023-03-13T09:16:59.680Z,6.22
2023-03-13T09:18:03.992Z,2.28
2023-03-13T09:19:07.249Z,4.10
2023-03-13T09:20:14.012Z,2.38
2023-03-13T09:21:27.855Z,3.38
2023-03-13T09:22:32.199Z,3.28
2023-03-13T09:23:36.736Z,2.35
2023-03-13T09:24:42.460Z,2.60
2023-03-13T09:25:46.146Z,2.80
2023-03-13T09:27:00.676Z,2.40
2023-03-13T09:28:04.824Z,2.60
2023-03-13T09:29:07.631Z,2.70
2023-03-13T09:30:13.391Z,2.88
2023-03-13T09:31:19.710Z,2.95
2023-03-13T09:32:24.492Z,2.50
2023-03-13T09:33:27.869Z,2.40
2023-03-13T09:34:32.561Z,3.28
2023-03-13T09:35:39.981Z,2.90
2023-03-13T09:36:45.708Z,2.35
2023-03-13T09:37:50.678Z,2.33
2023-03-13T09:38:59.816Z,3.55
2023-03-13T09:40:08.712Z,2.60
2023-03-13T09:41:37.097Z,3.00
2023-03-13T09:42:50.769Z,2.40
2023-03-13T09:44:15.287Z,2.78
2023-03-13T09:45:33.080Z,3.00
2023-03-13T09:46:46.347Z,2.53
2023-03-13T09:48:13.496Z,2.72
2023-03-13T09:49:41.321Z,2.90
2023-03-13T09:51:13.897Z,2.78
2023-03-13T09:52:23.536Z,2.70
2023-03-13T09:53:40.819Z,3.15
2023-03-13T09:55:54.901Z,2.42
2023-03-13T09:57:13.909Z,2.88
2023-03-13T09:58:23.713Z,2.58
2023-03-13T09:59:29.560Z,2.90
2023-03-13T10:00:36.921Z,3.10
2023-03-13T10:01:42.709Z,3.10
2023-03-13T10:02:53.889Z,2.70
2023-03-13T10:04:09.165Z,2.70
2023-03-13T10:05:27.201Z,2.50
2023-03-13T10:06:49.058Z,3.20
2023-03-13T10:07:56.852Z,2.85
2023-03-13T10:09:02.221Z,2.80
2023-03-13T10:10:17.966Z,2.85
2023-03-13T10:11:35.427Z,2.58
2023-03-13T10:12:52.643Z,3.30
2023-03-13T10:14:04.481Z,3.10
2023-03-13T10:15:37.385Z,2.70
2023-03-13T10:16:48.668Z,2.90
2023-03-13T10:17:54.167Z,3.10
2023-03-13T10:19:09.699Z,3.30
2023-03-13T10:20:25.832Z,2.97
2023-03-13T10:21:36.715Z,2.75
2023-03-13T10:22:50.793Z,2.80
2023-03-13T10:24:04.174Z,3.13
2023-03-13T10:25:28.363Z,3.03
2023-03-13T10:26:37.900Z,3.05
2023-03-13T10:27:50.890Z,3.40
2023-03-13T10:28:55.644Z,2.95
2023-03-13T10:30:00.075Z,3.05
2023-03-13T10:31:33.684Z,3.42
2023-03-13T10:32:37.240Z,2.60
2023-03-13T10:33:40.972Z,3.20
2023-03-13T10:34:58.071Z,3.20
2023-03-13T10:36:07.361Z,3.15
2023-03-13T10:38:24.015Z,3.10
2023-03-13T10:39:30.299Z,3.35
2023-03-13T10:40:35.290Z,2.85
2023-03-13T10:41:39.256Z,3.15
2023-03-13T10:42:46.234Z,3.03
2023-03-13T10:43:55.767Z,2.97
2023-03-13T10:45:04.194Z,3.90
2023-03-13T10:46:12.277Z,3.70
2023-03-13T10:47:16.369Z,3.28
2023-03-13T10:48:27.485Z,3.83
2023-03-13T10:49:32.723Z,3.13
2023-03-13T10:50:40.492Z,3.33
2023-03-13T10:51:55.206Z,3.22
2023-03-13T10:53:18.586Z,3.25
2023-03-13T10:54:38.106Z,3.25
2023-03-13T10:55:44.846Z,3.53
2023-03-13T10:57:20.354Z,3.67
2023-03-13T10:58:33.717Z,3.38
2023-03-13T10:59:44.398Z,3.22
2023-03-13T11:00:49.485Z,3.00
2023-03-13T11:01:58.718Z,3.63
2023-03-13T11:03:05.648Z,3.38
2023-03-13T11:04:29.827Z,3.70
2023-03-13T11:05:43.324Z,3.58
2023-03-13T11:06:55.966Z,2.90
2023-03-13T11:08:13.240Z,3.70
2023-03-13T11:09:17.976Z,3.55
2023-03-13T11:10:32.753Z,3.53
2023-03-13T11:11:51.178Z,4.00
2023-03-13T11:12:56.506Z,3.72
2023-03-13T11:14:14.247Z,3.30
2023-03-13T11:15:21.292Z,3.08
2023-03-13T11:16:29.029Z,3.30
2023-03-13T11:17:37.928Z,3.60
2023-03-13T11:18:46.136Z,3.20
2023-03-13T11:20:23.898Z,3.80
2023-03-13T11:21:54.817Z,3.92
2023-03-13T11:23:24.803Z,3.67
2023-03-13T11:24:42.152Z,3.50
2023-03-13T11:25:59.672Z,4.10
2023-03-13T11:27:16.592Z,3.72
2023-03-13T11:28:42.589Z,4.30
2023-03-13T11:29:56.825Z,3.90
2023-03-13T11:31:23.615Z,4.18
2023-03-13T11:32:43.366Z,4.45
2023-03-13T11:33:57.667Z,5.03
2023-03-13T11:35:07.701Z,4.68
2023-03-13T11:36:25.830Z,4.43
2023-03-13T11:37:32.609Z,4.80
2023-03-13T11:38:42.769Z,4.53
2023-03-13T11:39:58.583Z,4.97
2023-03-13T11:41:15.854Z,4.65
2023-03-13T11:42:24.261Z,4.20
2023-03-13T11:43:57.210Z,3.90
2023-03-13T11:44:59.383Z,4.60
2023-03-13T11:46:16.203Z,3.50
2023-03-13T11:47:50.459Z,3.72
2023-03-13T11:49:52.275Z,4.05
2023-03-13T11:51:13.609Z,4.07
2023-03-13T11:52:19.087Z,3.42
2023-03-13T11:53:27.660Z,3.70
2023-03-13T11:55:04.196Z,3.75
2023-03-13T11:56:13.755Z,4.10
2023-03-13T11:58:00.280Z,3.70
2023-03-13T11:59:02.310Z,4.20
2023-03-13T12:00:31.643Z,4.40
2023-03-13T12:01:42.633Z,4.03
2023-03-13T12:03:17.681Z,4.32
2023-03-13T12:04:44.620Z,4.03
2023-03-13T12:05:59.341Z,4.28
2023-03-13T12:07:50.452Z,3.90
2023-03-13T12:09:10.491Z,4.60
2023-03-13T12:10:36.882Z,4.25
2023-03-13T12:12:06.358Z,4.15
2023-03-13T12:13:20.915Z,5.00
2023-03-13T12:14:29.178Z,4.22
2023-03-13T12:15:51.870Z,4.50
2023-03-13T12:17:00.274Z,3.70
2023-03-13T12:18:18.147Z,5.53
2023-03-13T12:19:30.974Z,4.50
2023-03-13T12:20:59.256Z,4.40
2023-03-13T12:22:34.533Z,4.10
2023-03-13T12:23:40.041Z,4.75
2023-03-13T12:24:54.136Z,4.78
2023-03-13T12:26:12.251Z,4.40
2023-03-13T12:27:49.762Z,4.85
2023-03-13T12:28:55.306Z,4.75
2023-03-13T12:30:06.531Z,4.00
2023-03-13T12:31:38.018Z,4.25
2023-03-13T12:33:03.836Z,3.78
2023-03-13T12:34:32.357Z,4.75
2023-03-13T12:35:36.793Z,4.50
2023-03-13T12:36:46.926Z,4.57
2023-03-13T12:38:26.488Z,4.68
2023-03-13T12:39:50.539Z,4.25
2023-03-13T12:41:08.883Z,4.40
2023-03-13T12:43:40.154Z,4.38
2023-03-13T12:44:43.283Z,4.28
2023-03-13T12:45:58.626Z,4.15
2023-03-13T12:47:33.379Z,5.07
2023-03-13T12:49:20.231Z,4.95
2023-03-13T12:50:42.727Z,5.15
2023-03-13T12:51:54.069Z,4.50
2023-03-13T12:53:19.060Z,4.68
2023-03-13T12:54:44.059Z,4.38
2023-03-13T12:56:11.207Z,4.22
2023-03-13T12:57:19.990Z,5.10
2023-03-13T12:58:52.039Z,4.67
2023-03-13T13:00:00.371Z,3.95
2023-03-13T13:01:06.630Z,4.18
2023-03-13T13:02:30.811Z,3.10
2023-03-13T13:03:47.671Z,3.30
2023-03-13T13:04:52.180Z,3.58
2023-03-13T13:06:03.050Z,3.80
2023-03-13T13:07:19.881Z,4.35
2023-03-13T13:08:27.018Z,4.07
2023-03-13T13:09:48.172Z,3.97
2023-03-13T13:10:50.244Z,3.20
2023-03-13T13:11:55.490Z,3.72
2023-03-13T13:13:16.336Z,3.42
2023-03-13T13:14:18.458Z,3.65
2023-03-13T13:15:26.692Z,3.53
2023-03-13T13:16:30.115Z,3.30
2023-03-13T13:17:54.253Z,3.65
2023-03-13T13:19:24.618Z,3.30
2023-03-13T13:20:26.746Z,3.40
2023-03-13T13:21:31.205Z,2.80
2023-03-13T13:22:38.816Z,3.00
2023-03-13T13:23:46.982Z,3.40
2023-03-13T13:24:52.259Z,3.13
2023-03-13T13:25:56.988Z,3.05
2023-03-13T13:26:59.166Z,3.28
2023-03-13T13:28:18.341Z,3.15
2023-03-13T13:29:20.971Z,3.17
2023-03-13T13:30:24.050Z,2.90
2023-03-13T13:31:50.923Z,3.20
2023-03-13T13:32:54.888Z,3.03
2023-03-13T13:33:58.416Z,3.15
2023-03-13T13:35:19.103Z,2.40
2023-03-13T13:36:24.216Z,2.72
2023-03-13T13:37:31.668Z,2.78
2023-03-13T13:38:38.124Z,2.70
2023-03-13T13:39:50.415Z,3.08
2023-03-13T13:41:05.634Z,2.40
2023-03-13T13:42:32.584Z,2.72
2023-03-13T13:43:37.109Z,2.20
2023-03-13T13:45:17.510Z,2.65
2023-03-13T13:46:33.893Z,3.20
2023-03-13T13:47:36.030Z,3.05
2023-03-13T13:48:41.835Z,3.42
2023-03-13T13:49:58.973Z,3.42
2023-03-13T13:51:15.191Z,3.83
2023-03-13T13:52:31.731Z,2.90
2023-03-13T13:53:57.737Z,3.40
2023-03-13T13:55:01.065Z,3.20
2023-03-13T13:56:25.186Z,3.63
2023-03-13T13:57:36.032Z,3.03
2023-03-13T13:58:44.605Z,7.28
2023-03-13T13:59:52.252Z,3.17
2023-03-13T14:00:56.742Z,3.17
2023-03-13T14:02:04.468Z,3.00
2023-03-13T14:03:19.356Z,2.20
2023-03-13T14:04:30.401Z,2.53
2023-03-13T14:05:33.637Z,2.92
2023-03-13T14:06:39.148Z,2.65
2023-03-13T14:07:41.460Z,2.92
2023-03-13T14:08:46.695Z,3.08
2023-03-13T14:09:52.424Z,2.58
2023-03-13T14:11:40.314Z,3.10
2023-03-13T14:12:51.958Z,2.60
2023-03-13T14:14:20.076Z,4.35
2023-03-13T14:15:28.800Z,3.53
2023-03-13T14:16:31.748Z,3.10
2023-03-13T14:17:53.987Z,2.80
2023-03-13T14:18:56.294Z,2.38
2023-03-13T14:20:00.896Z,2.38
2023-03-13T14:21:13.586Z,2.90
2023-03-13T14:22:17.847Z,3.10
2023-03-13T14:23:57.524Z,2.97
2023-03-13T14:24:59.812Z,2.70
2023-03-13T14:26:24.987Z,3.13
2023-03-13T14:27:27.653Z,2.78
2023-03-13T14:28:30.683Z,2.72
2023-03-13T14:29:34.993Z,2.65
2023-03-13T14:30:44.368Z,2.80
2023-03-13T14:33:02.170Z,3.00
2023-03-13T14:34:12.904Z,2.50
2023-03-13T14:35:19.610Z,2.55
2023-03-13T14:36:23.216Z,2.90
2023-03-13T14:37:42.327Z,2.28
2023-03-13T14:39:01.492Z,2.22
2023-03-13T14:40:19.599Z,2.10
2023-03-13T14:41:48.798Z,1.98
2023-03-13T14:42:53.527Z,2.13
2023-03-13T14:44:06.864Z,2.60
2023-03-13T14:45:36.131Z,2.30
2023-03-13T14:46:42.248Z,2.50
2023-03-13T14:47:44.398Z,2.22
2023-03-13T14:48:47.654Z,2.40
2023-03-13T14:49:57.234Z,2.13
2023-03-13T14:51:15.866Z,2.03
2023-03-13T14:53:27.802Z,1.60
2023-03-13T14:54:53.080Z,2.10
2023-03-13T14:56:13.065Z,1.75
2023-03-13T14:57:25.446Z,2.03
2023-03-13T14:58:30.648Z,1.98
2023-03-13T14:59:33.479Z,2.33
2023-03-13T15:00:42.755Z,2.30
2023-03-13T15:01:46.033Z,2.45
2023-03-13T15:02:48.476Z,2.90
2023-03-13T15:03:52.501Z,2.33
2023-03-13T15:05:11.960Z,2.67
2023-03-13T15:06:22.013Z,2.20
2023-03-13T15:07:27.428Z,2.47
2023-03-13T15:08:30.955Z,2.67
2023-03-13T15:09:42.708Z,3.05
2023-03-13T15:10:46.894Z,2.20
2023-03-13T15:11:59.859Z,2.30
2023-03-13T15:13:34.318Z,1.85
2023-03-13T15:14:42.394Z,2.30
2023-03-13T15:15:47.994Z,2.00
2023-03-13T15:16:50.477Z,2.47
2023-03-13T15:17:52.723Z,2.50
2023-03-13T15:18:56.356Z,1.98
2023-03-13T15:19:59.449Z,1.90
2023-03-13T15:21:13.422Z,2.05
2023-03-13T15:22:17.347Z,1.80
2023-03-13T15:23:21.059Z,1.75
2023-03-13T15:24:24.759Z,1.73
2023-03-13T15:25:29.290Z,1.50
2023-03-13T15:26:31.375Z,2.00
2023-03-13T15:27:33.861Z,2.05
2023-03-13T15:28:36.206Z,1.63
2023-03-13T15:29:38.500Z,1.85
2023-03-13T15:30:41.034Z,1.80
2023-03-13T15:31:44.217Z,3.35
2023-03-13T15:32:47.313Z,2.15
2023-03-13T15:33:54.923Z,2.15
2023-03-13T15:35:02.176Z,2.15
2023-03-13T15:36:04.671Z,2.22
2023-03-13T15:37:11.977Z,2.13
2023-03-13T15:38:18.042Z,2.45
2023-03-13T15:39:20.892Z,2.03
2023-03-13T15:40:24.564Z,1.77
2023-03-13T15:41:26.574Z,2.33
2023-03-13T15:42:28.671Z,1.90
2023-03-13T15:43:31.323Z,2.10
2023-03-13T15:44:33.353Z,2.00
2023-03-13T15:45:37.821Z,2.13
2023-03-13T15:46:40.047Z,2.53
2023-03-13T15:47:42.075Z,2.20
2023-03-13T15:48:44.068Z,2.33
2023-03-13T15:49:46.396Z,2.35
2023-03-13T15:50:52.904Z,3.20
2023-03-13T15:51:57.418Z,2.15
2023-03-13T15:53:04.165Z,2.08
2023-03-13T15:54:06.603Z,2.30
2023-03-13T15:55:10.220Z,2.40
2023-03-13T15:56:18.150Z,2.40
2023-03-13T15:57:24.201Z,2.72
2023-03-13T15:58:29.744Z,3.15
2023-03-13T15:59:31.686Z,2.80
2023-03-13T16:00:33.909Z,2.60
2023-03-13T16:01:35.877Z,2.90
2023-03-13T16:02:38.040Z,3.03
2023-03-13T16:03:40.976Z,3.28
2023-03-13T16:04:44.107Z,3.20
2023-03-13T16:05:48.125Z,3.25
2023-03-13T16:06:50.181Z,4.47
2023-03-13T16:07:52.182Z,3.78
2023-03-13T16:08:54.101Z,2.83
2023-03-13T16:09:55.994Z,2.85
2023-03-13T16:10:57.999Z,2.90
2023-03-13T16:12:00.188Z,3.13
2023-03-13T16:13:03.656Z,2.88
2023-03-13T16:14:05.519Z,2.88
2023-03-13T16:15:08.163Z,2.53
2023-03-13T16:16:20.609Z,2.80
2023-03-13T16:17:22.753Z,2.78
2023-03-13T16:18:25.509Z,2.78
2023-03-13T16:19:27.581Z,2.45
2023-03-13T16:20:32.267Z,3.13
2023-03-13T16:21:36.295Z,2.67
2023-03-13T16:22:38.208Z,3.45
2023-03-13T16:23:41.290Z,2.50
2023-03-13T16:24:43.372Z,2.95
2023-03-13T16:25:47.109Z,2.97
2023-03-13T16:26:49.126Z,2.45
2023-03-13T16:27:53.633Z,3.53
2023-03-13T16:28:55.784Z,2.55
2023-03-13T16:29:57.812Z,2.53
2023-03-13T16:30:59.894Z,3.10
2023-03-13T16:32:03.234Z,2.85
2023-03-13T16:33:05.226Z,2.78
2023-03-13T16:34:09.349Z,2.63
2023-03-13T16:35:11.595Z,2.67
2023-03-13T16:36:19.981Z,3.17
2023-03-13T16:37:22.699Z,3.40
2023-03-13T16:38:25.245Z,3.10
2023-03-13T16:39:27.252Z,3.00
2023-03-13T16:40:33.894Z,3.08
2023-03-13T16:41:37.439Z,2.75
2023-03-13T16:42:39.584Z,3.13
2023-03-13T16:43:41.716Z,3.00
2023-03-13T16:44:45.947Z,3.00
2023-03-13T16:45:48.299Z,3.42
2023-03-13T16:47:04.220Z,3.13
2023-03-13T16:48:07.212Z,2.80
2023-03-13T16:49:14.139Z,3.35
2023-03-13T16:50:26.944Z,3.40
2023-03-13T16:51:29.211Z,3.58
2023-03-13T16:52:31.129Z,3.35
2023-03-13T16:53:33.207Z,3.65
2023-03-13T16:54:35.304Z,4.43
2023-03-13T16:55:37.836Z,3.45
2023-03-13T16:56:43.273Z,3.38
2023-03-13T16:57:45.690Z,3.90
2023-03-13T16:58:48.056Z,3.75
2023-03-13T16:59:50.933Z,3.70
2023-03-13T17:01:04.676Z,3.95
2023-03-13T17:02:18.251Z,4.20
2023-03-13T17:03:20.387Z,3.65
2023-03-13T17:04:22.538Z,3.97
2023-03-13T17:05:28.554Z,5.57
2023-03-13T17:06:35.102Z,4.68
2023-03-13T17:07:37.007Z,4.35
2023-03-13T17:08:39.667Z,4.13
2023-03-13T17:09:41.577Z,4.03
2023-03-13T17:10:43.914Z,4.75
2023-03-13T17:11:45.913Z,3.72
2023-03-13T17:12:47.951Z,3.42
2023-03-13T17:13:51.982Z,4.63
2023-03-13T17:14:54.155Z,3.60
2023-03-13T17:15:56.219Z,4.25
2023-03-13T17:16:58.212Z,3.65
2023-03-13T17:18:00.553Z,3.83
2023-03-13T17:19:04.918Z,4.25
2023-03-13T17:20:09.866Z,3.90
2023-03-13T17:21:17.813Z,4.10
2023-03-13T17:22:20.116Z,4.45
2023-03-13T17:23:23.387Z,4.25
2023-03-13T17:24:25.362Z,3.70
2023-03-13T17:25:27.425Z,4.10
2023-03-13T17:26:33.757Z,5.05
2023-03-13T17:27:36.418Z,4.80
2023-03-13T17:28:38.326Z,4.80
2023-03-13T17:29:40.896Z,5.70
2023-03-13T17:30:43.016Z,6.20
2023-03-13T17:31:45.474Z,5.72
2023-03-13T17:32:48.342Z,7.10
2023-03-13T17:33:50.705Z,4.85
2023-03-13T17:34:52.769Z,4.75
2023-03-13T17:35:54.664Z,4.40
2023-03-13T17:36:56.769Z,4.43
2023-03-13T17:37:58.878Z,4.97
2023-03-13T17:39:05.498Z,5.22
2023-03-13T17:40:28.197Z,4.75
2023-03-13T17:41:33.875Z,4.90
2023-03-13T17:42:35.857Z,4.75
2023-03-13T17:43:38.318Z,4.28
2023-03-13T17:44:41.403Z,4.93
2023-03-13T17:45:43.421Z,4.38
2023-03-13T17:46:48.489Z,4.80
2023-03-13T17:47:50.648Z,5.00
2023-03-13T17:48:54.048Z,4.72
2023-03-13T17:49:56.035Z,5.40
2023-03-13T17:50:57.987Z,5.47
2023-03-13T17:52:00.301Z,5.65